createdAt,value
2017-06-10T00:00:36.093Z,2.80
2017-06-10T00:03:02.084Z,2.50
2017-06-10T00:05:28.808Z,1.63
2017-06-10T00:07:54.825Z,1.73
2017-06-10T00:10:20.776Z,1.10
2017-06-10T00:12:46.738Z,0.97
2017-06-10T00:15:12.749Z,1.30
2017-06-10T00:17:38.711Z,2.90
2017-06-10T00:20:04.735Z,1.70
2017-06-10T00:22:30.712Z,1.10
2017-06-10T00:24:56.669Z,1.30
2017-06-10T00:27:23.404Z,1.60
2017-06-10T00:29:50.218Z,1.20
2017-06-10T00:32:16.916Z,1.50
2017-06-10T00:34:42.915Z,1.73
2017-06-10T00:37:08.904Z,1.60
2017-06-10T00:39:34.865Z,1.33
2017-06-10T00:42:01.577Z,1.77
2017-06-10T00:44:27.561Z,1.50
2017-06-10T00:46:53.530Z,1.90
2017-06-10T00:49:19.509Z,1.20
2017-06-10T00:51:45.469Z,1.43
2017-06-10T00:54:11.453Z,1.27
2017-06-10T00:56:37.409Z,2.70
2017-06-10T00:59:03.409Z,1.83
2017-06-10T01:01:29.384Z,1.83
2017-06-10T01:03:55.370Z,1.93
2017-06-10T01:06:22.073Z,2.07
2017-06-10T01:08:48.069Z,1.70
2017-06-10T01:11:14.069Z,1.90
2017-06-10T01:13:40.037Z,1.23
2017-06-10T01:16:06.777Z,1.97
2017-06-10T01:18:32.742Z,2.90
2017-06-10T01:20:58.729Z,1.60
2017-06-10T01:23:24.692Z,2.00
2017-06-10T01:25:50.679Z,2.17
2017-06-10T01:28:16.693Z,1.93
2017-06-10T01:30:43.421Z,2.47
2017-06-10T01:33:10.181Z,3.10
2017-06-10T01:35:36.130Z,2.70
2017-06-10T01:38:02.115Z,2.93
2017-06-10T01:40:28.078Z,2.87
2017-06-10T01:42:54.842Z,2.00
2017-06-10T01:45:20.789Z,4.40
2017-06-10T01:47:46.743Z,3.23
2017-06-10T01:50:12.743Z,2.00
2017-06-10T01:52:38.701Z,2.20
2017-06-10T01:55:04.743Z,2.10
2017-06-10T01:57:30.697Z,2.60
2017-06-10T01:59:56.642Z,2.47
2017-06-10T02:02:22.629Z,2.17
2017-06-10T02:04:48.577Z,2.23
2017-06-10T02:07:15.267Z,2.97
2017-06-10T02:09:41.302Z,2.30
2017-06-10T02:12:07.254Z,2.73
2017-06-10T02:14:33.289Z,2.90
2017-06-10T02:16:59.249Z,4.07
2017-06-10T02:19:25.210Z,2.87
2017-06-10T02:21:51.210Z,2.63
2017-06-10T02:24:17.161Z,2.73
2017-06-10T02:26:43.862Z,3.17
2017-06-10T02:29:09.909Z,2.40
2017-06-10T02:31:35.902Z,3.03
2017-06-10T02:34:02.618Z,3.20
2017-06-10T02:36:28.618Z,3.80
2017-06-10T02:38:54.565Z,4.10
2017-06-10T02:41:20.505Z,3.50
2017-06-10T02:43:46.494Z,4.80
2017-06-10T02:46:12.437Z,3.73
2017-06-10T02:48:38.418Z,3.90
2017-06-10T02:51:04.387Z,6.07
2017-06-10T02:53:30.435Z,3.30
2017-06-10T02:55:56.431Z,4.23
2017-06-10T02:58:22.373Z,2.57
2017-06-10T03:00:48.356Z,2.80
2017-06-10T03:03:14.310Z,2.97
2017-06-10T03:05:40.330Z,1.97
2017-06-10T03:08:07.062Z,2.47
2017-06-10T03:10:33.024Z,2.03
2017-06-10T03:12:59.073Z,2.00
2017-06-10T03:15:25.761Z,1.90
2017-06-10T03:17:51.709Z,2.00
2017-06-10T03:20:18.429Z,2.23
2017-06-10T03:22:44.381Z,2.20
2017-06-10T03:25:10.413Z,3.90
2017-06-10T03:27:36.381Z,3.57
2017-06-10T03:30:02.361Z,2.27
2017-06-10T03:32:28.343Z,2.50
2017-06-10T03:34:54.298Z,3.73
2017-06-10T03:37:20.304Z,4.30
2017-06-10T03:39:47.013Z,2.70
2017-06-10T03:42:13.721Z,3.13
2017-06-10T03:44:39.722Z,3.70
2017-06-10T03:47:05.694Z,2.50
2017-06-10T03:49:31.701Z,3.30
2017-06-10T03:51:57.677Z,3.50
2017-06-10T03:54:23.617Z,5.20
2017-06-10T03:56:49.604Z,2.60
2017-06-10T03:59:15.575Z,3.60
2017-06-10T04:01:41.517Z,2.77
2017-06-10T04:04:08.255Z,5.10
2017-06-10T04:06:34.206Z,3.10
2017-06-10T04:09:00.234Z,3.10
2017-06-10T04:11:26.229Z,4.90
2017-06-10T04:13:52.173Z,4.00
2017-06-10T04:16:18.913Z,4.47
2017-06-10T04:18:45.607Z,3.60
2017-06-10T04:21:11.623Z,4.10
2017-06-10T04:23:37.595Z,7.10
2017-06-10T04:26:03.557Z,4.10
2017-06-10T04:28:29.577Z,4.13
2017-06-10T04:30:55.561Z,4.90
2017-06-10T04:33:21.522Z,4.33
2017-06-10T04:35:47.517Z,4.63
2017-06-10T04:38:13.485Z,4.87
2017-06-10T04:40:39.485Z,5.97
2017-06-10T04:43:05.441Z,5.20
2017-06-10T04:45:31.438Z,4.47
2017-06-10T04:47:57.437Z,6.00
2017-06-10T04:50:24.145Z,8.40
2017-06-10T04:52:50.147Z,5.77
2017-06-10T04:55:16.102Z,5.13
2017-06-10T04:57:42.089Z,5.10
2017-06-10T05:00:08.826Z,7.70
2017-06-10T05:02:34.801Z,6.43
2017-06-10T05:05:01.557Z,6.90
2017-06-10T05:07:27.513Z,5.87
2017-06-10T05:09:53.465Z,6.53
2017-06-10T05:12:20.204Z,6.10
2017-06-10T05:14:46.197Z,5.73
2017-06-10T05:17:12.925Z,7.00
2017-06-10T05:19:38.875Z,6.00
2017-06-10T05:22:04.885Z,10.37
2017-06-10T05:24:30.859Z,5.20
2017-06-10T05:26:56.817Z,6.13
2017-06-10T05:29:22.830Z,6.83
2017-06-10T05:31:48.801Z,5.63
2017-06-10T05:34:14.806Z,5.90
2017-06-10T05:36:40.832Z,5.70
2017-06-10T05:39:06.819Z,8.33
2017-06-10T05:41:32.817Z,5.87
2017-06-10T05:43:58.789Z,8.00
2017-06-10T05:46:24.802Z,6.30
2017-06-10T05:48:50.762Z,6.60
2017-06-10T05:51:16.722Z,6.63
2017-06-10T05:53:42.782Z,8.17
2017-06-10T05:56:08.745Z,6.80
2017-06-10T05:58:34.718Z,7.97
2017-06-10T06:01:00.729Z,9.13
2017-06-10T06:03:26.689Z,6.70
2017-06-10T06:05:52.721Z,7.20
2017-06-10T06:08:18.689Z,9.47
2017-06-10T06:10:44.658Z,8.80
2017-06-10T06:13:10.660Z,7.43
2017-06-10T06:15:36.625Z,7.27
2017-06-10T06:18:03.412Z,7.33
2017-06-10T06:20:29.410Z,7.90
2017-06-10T06:22:55.413Z,5.97
2017-06-10T06:25:21.374Z,6.20
2017-06-10T06:27:47.327Z,9.40
2017-06-10T06:30:13.348Z,6.20
2017-06-10T06:32:39.302Z,6.93
2017-06-10T06:35:06.037Z,7.80
2017-06-10T06:37:32.777Z,7.23
2017-06-10T06:39:58.795Z,6.20
2017-06-10T06:42:24.750Z,7.80
2017-06-10T06:44:50.762Z,7.30
2017-06-10T06:47:16.725Z,6.80
2017-06-10T06:49:42.686Z,8.27
2017-06-10T06:52:08.678Z,6.13
2017-06-10T06:54:34.645Z,6.70
2017-06-10T06:57:00.654Z,9.20
2017-06-10T06:59:26.610Z,9.73
2017-06-10T07:01:52.550Z,7.93
2017-06-10T07:04:18.553Z,7.80
2017-06-10T07:06:45.251Z,6.40
2017-06-10T07:09:11.195Z,9.37
2017-06-10T07:11:37.181Z,6.27
2017-06-10T07:14:03.893Z,4.87
2017-06-10T07:16:29.907Z,5.40
2017-06-10T07:18:55.872Z,9.97
2017-06-10T07:21:21.842Z,4.43
2017-06-10T07:23:48.577Z,5.63
2017-06-10T07:26:15.275Z,8.23
2017-06-10T07:28:41.257Z,6.43
2017-06-10T07:31:07.297Z,5.50
2017-06-10T07:33:33.341Z,4.43
2017-06-10T07:35:59.327Z,8.20
2017-06-10T07:38:26.048Z,4.43
2017-06-10T07:40:52.002Z,5.00
2017-06-10T07:43:17.990Z,5.50
2017-06-10T07:45:43.934Z,4.90
2017-06-10T07:48:09.928Z,4.50
2017-06-10T07:50:35.906Z,4.37
2017-06-10T07:53:01.918Z,5.03
2017-06-10T07:55:27.870Z,6.63
2017-06-10T07:57:53.856Z,7.00
2017-06-10T08:00:19.826Z,4.17
2017-06-10T08:02:46.564Z,7.00
2017-06-10T08:05:13.253Z,8.27
2017-06-10T08:07:39.269Z,4.53
2017-06-10T08:10:05.246Z,5.00
2017-06-10T08:12:31.221Z,5.17
2017-06-10T08:14:57.201Z,3.70
2017-06-10T08:17:23.154Z,6.20
2017-06-10T08:19:49.142Z,7.17
2017-06-10T08:22:15.102Z,4.60
2017-06-10T08:24:41.868Z,7.27
2017-06-10T08:27:07.821Z,4.93
2017-06-10T08:29:33.841Z,5.40
2017-06-10T08:32:00.542Z,4.20
2017-06-10T08:34:26.501Z,4.37
2017-06-10T08:36:52.478Z,4.47
2017-06-10T08:39:18.425Z,4.17
2017-06-10T08:41:44.434Z,4.90
2017-06-10T08:44:10.398Z,6.50
2017-06-10T08:46:36.405Z,7.40
2017-06-10T08:49:02.361Z,8.60
2017-06-10T08:51:28.337Z,4.17
2017-06-10T08:53:55.061Z,6.60
2017-06-10T08:56:21.757Z,5.90
2017-06-10T08:58:47.758Z,4.03
2017-06-10T09:01:13.734Z,5.37
2017-06-10T09:03:39.724Z,4.83
2017-06-10T09:06:06.462Z,7.17
2017-06-10T09:08:32.428Z,5.90
2017-06-10T09:10:58.417Z,4.70
2017-06-10T09:13:24.378Z,9.97
2017-06-10T09:15:50.334Z,8.23
2017-06-10T09:18:16.362Z,5.10
2017-06-10T09:20:42.350Z,6.67
2017-06-10T09:23:08.315Z,7.00
2017-06-10T09:25:34.334Z,5.73
2017-06-10T09:28:01.039Z,5.27
2017-06-10T09:30:27.038Z,6.90
2017-06-10T09:32:53.030Z,4.13
2017-06-10T09:35:18.989Z,4.60
2017-06-10T09:37:45.005Z,5.03
2017-06-10T09:40:10.972Z,3.60
2017-06-10T09:42:36.958Z,4.93
2017-06-10T09:45:02.901Z,4.17
2017-06-10T09:47:28.925Z,4.70
2017-06-10T09:49:55.618Z,3.90
2017-06-10T09:52:21.570Z,4.50
2017-06-10T09:54:47.585Z,4.90
2017-06-10T09:57:13.569Z,4.73
2017-06-10T09:59:40.269Z,5.60
2017-06-10T10:02:06.253Z,3.93
2017-06-10T10:04:32.206Z,6.53
2017-06-10T10:06:58.953Z,8.83
2017-06-10T10:09:24.909Z,3.70
2017-06-10T10:11:50.882Z,5.40
2017-06-10T10:14:16.897Z,4.57
2017-06-10T10:16:42.886Z,7.03
2017-06-10T10:19:08.918Z,6.20
2017-06-10T10:21:34.882Z,4.40
2017-06-10T10:24:00.889Z,5.17
2017-06-10T10:26:26.849Z,7.70
2017-06-10T10:28:52.814Z,6.30
2017-06-10T10:31:18.841Z,5.30
2017-06-10T10:33:44.837Z,8.23
2017-06-10T10:36:10.788Z,5.13
2017-06-10T10:38:36.781Z,5.20
2017-06-10T10:41:02.776Z,4.27
2017-06-10T10:43:28.761Z,4.07
2017-06-10T10:45:54.726Z,5.03
2017-06-10T10:48:20.729Z,9.43
2017-06-10T10:50:46.686Z,5.17
2017-06-10T10:53:12.675Z,5.83
2017-06-10T10:55:39.409Z,3.50
2017-06-10T10:58:06.100Z,4.80
2017-06-10T11:00:32.083Z,6.20
2017-06-10T11:02:58.049Z,4.03
2017-06-10T11:05:24.057Z,4.43
2017-06-10T11:07:50.754Z,5.10
2017-06-10T11:10:16.759Z,3.67
2017-06-10T11:12:42.786Z,4.80
2017-06-10T11:15:08.741Z,4.67
2017-06-10T11:17:34.748Z,4.00
2017-06-10T11:20:00.705Z,3.37
2017-06-10T11:22:26.662Z,6.83
2017-06-10T11:24:52.636Z,6.07
2017-06-10T11:27:18.641Z,2.93
2017-06-10T11:29:44.667Z,5.50
2017-06-10T11:32:10.630Z,3.70
2017-06-10T11:34:37.353Z,4.80
2017-06-10T11:37:04.049Z,5.73
2017-06-10T11:39:30.036Z,3.10
2017-06-10T11:41:55.990Z,4.03
2017-06-10T11:44:21.957Z,4.00
2017-06-10T11:46:48.006Z,5.73
2017-06-10T11:49:14.718Z,3.57
2017-06-10T11:51:40.713Z,8.03
2017-06-10T11:54:06.670Z,9.23
2017-06-10T11:56:32.705Z,5.17
2017-06-10T11:58:58.653Z,6.70
2017-06-10T12:01:24.610Z,4.90
2017-06-10T12:03:50.601Z,5.60
2017-06-10T12:06:16.593Z,4.90
2017-06-10T12:08:42.577Z,4.30
2017-06-10T12:11:08.553Z,4.47
2017-06-10T12:13:34.497Z,6.07
2017-06-10T12:16:00.493Z,9.33
2017-06-10T12:18:26.450Z,7.87
2017-06-10T12:20:52.409Z,5.70
2017-06-10T12:23:19.134Z,6.17
2017-06-10T12:25:45.887Z,7.50
2017-06-10T12:28:11.883Z,4.97
2017-06-10T12:30:38.681Z,5.00
2017-06-10T12:33:04.624Z,4.90
2017-06-10T12:35:30.581Z,5.07
2017-06-10T12:37:56.585Z,6.73
2017-06-10T12:40:22.532Z,4.40
2017-06-10T12:42:48.481Z,5.03
2017-06-10T12:45:14.490Z,5.67
2017-06-10T12:47:40.442Z,4.67
2017-06-10T12:50:06.396Z,4.73
2017-06-10T12:52:32.393Z,5.50
2017-06-10T12:54:58.377Z,7.03
2017-06-10T12:57:25.073Z,4.70
2017-06-10T12:59:51.062Z,9.47
2017-06-10T13:02:17.018Z,4.70
2017-06-10T13:04:43.014Z,6.47
2017-06-10T13:07:09.018Z,5.97
2017-06-10T13:09:35.025Z,5.73
2017-06-10T13:12:00.969Z,6.47
2017-06-10T13:14:27.661Z,5.00
2017-06-10T13:16:53.665Z,6.33
2017-06-10T13:19:19.613Z,7.53
2017-06-10T13:21:46.313Z,5.93
2017-06-10T13:24:12.307Z,5.80
2017-06-10T13:26:38.256Z,6.33
2017-06-10T13:29:04.982Z,5.77
2017-06-10T13:31:30.974Z,6.17
2017-06-10T13:33:57.001Z,6.67
2017-06-10T13:36:23.015Z,5.63
2017-06-10T13:38:49.753Z,5.40
2017-06-10T13:41:15.745Z,6.50
2017-06-10T13:43:42.449Z,6.13
2017-06-10T13:46:08.407Z,6.83
2017-06-10T13:48:34.397Z,6.60
2017-06-10T13:51:00.402Z,6.67
2017-06-10T13:53:27.161Z,5.77
2017-06-10T13:55:53.125Z,5.63
2017-06-10T13:58:19.818Z,6.43
2017-06-10T14:00:45.853Z,6.07
2017-06-10T14:03:11.818Z,5.50
2017-06-10T14:05:37.767Z,6.00
2017-06-10T14:08:03.769Z,6.73
2017-06-10T14:10:29.777Z,6.23
2017-06-10T14:12:55.777Z,5.30
2017-06-10T14:15:21.733Z,6.20
2017-06-10T14:17:47.722Z,6.00
2017-06-10T14:20:13.724Z,4.87
2017-06-10T14:22:39.677Z,5.63
2017-06-10T14:25:05.656Z,6.00
2017-06-10T14:27:31.641Z,4.93
2017-06-10T14:29:57.627Z,5.57
2017-06-10T14:32:23.617Z,6.67
2017-06-10T14:34:49.617Z,4.83
2017-06-10T14:37:15.640Z,5.43
2017-06-10T14:39:41.585Z,5.70
2017-06-10T14:42:07.534Z,5.30
2017-06-10T14:44:33.528Z,6.50
2017-06-10T14:46:59.545Z,5.87
2017-06-10T14:49:25.511Z,5.17
2017-06-10T14:51:51.466Z,5.70
2017-06-10T14:54:17.461Z,6.60
2017-06-10T14:56:44.197Z,9.47
2017-06-10T14:59:10.965Z,6.83
2017-06-10T15:01:36.969Z,6.60
2017-06-10T15:04:02.963Z,7.17
2017-06-10T15:06:28.938Z,6.07
2017-06-10T15:08:54.957Z,6.57
2017-06-10T15:11:20.946Z,7.67
2017-06-10T15:13:47.653Z,6.13
2017-06-10T15:16:13.645Z,6.53
2017-06-10T15:18:39.601Z,6.13
2017-06-10T15:21:05.600Z,7.63
2017-06-10T15:23:31.553Z,7.10
2017-06-10T15:25:58.285Z,6.43
2017-06-10T15:28:24.986Z,6.47
2017-06-10T15:30:51.034Z,5.47
2017-06-10T15:33:16.989Z,5.70
2017-06-10T15:35:42.965Z,6.50
2017-06-10T15:38:08.956Z,5.43
2017-06-10T15:40:34.904Z,5.67
2017-06-10T15:43:00.895Z,5.93
2017-06-10T15:45:26.846Z,4.83
2017-06-10T15:47:52.802Z,5.23
2017-06-10T15:50:18.839Z,5.93
2017-06-10T15:52:44.830Z,5.40
2017-06-10T15:55:10.802Z,5.57
2017-06-10T15:57:37.526Z,4.90
2017-06-10T16:00:04.222Z,13.03
2017-06-10T16:02:30.202Z,4.10
2017-06-10T16:04:56.149Z,4.40
2017-06-10T16:07:22.182Z,4.50
2017-06-10T16:09:48.893Z,6.73
2017-06-10T16:12:14.868Z,5.63
2017-06-10T16:14:40.849Z,5.20
2017-06-10T16:17:06.845Z,9.83
2017-06-10T16:19:32.806Z,5.97
2017-06-10T16:21:58.749Z,3.83
2017-06-10T16:24:24.733Z,4.93
2017-06-10T16:26:50.730Z,5.10
2017-06-10T16:29:16.736Z,3.80
2017-06-10T16:31:42.697Z,4.53
2017-06-10T16:34:09.395Z,4.90
2017-06-10T16:36:35.399Z,3.77
2017-06-10T16:39:01.354Z,4.17
2017-06-10T16:41:27.359Z,5.70
2017-06-10T16:43:53.315Z,3.30
2017-06-10T16:46:19.274Z,4.30
2017-06-10T16:48:45.278Z,3.07
2017-06-10T16:51:11.238Z,7.70
2017-06-10T16:53:37.934Z,4.50
2017-06-10T16:56:03.945Z,3.93
2017-06-10T16:58:29.890Z,4.47
2017-06-10T17:00:55.874Z,6.60
2017-06-10T17:03:22.586Z,5.20
2017-06-10T17:05:48.601Z,4.87
2017-06-10T17:08:14.595Z,4.87
2017-06-10T17:10:40.549Z,4.00
2017-06-10T17:13:06.538Z,5.80
2017-06-10T17:15:33.246Z,3.73
2017-06-10T17:17:59.761Z,3.87
2017-06-10T17:20:25.725Z,5.30
2017-06-10T17:22:51.693Z,5.30
2017-06-10T17:25:17.706Z,5.23
2017-06-10T17:27:43.656Z,4.70
2017-06-10T17:30:09.614Z,3.97
2017-06-10T17:32:35.594Z,6.40
2017-06-10T17:35:01.575Z,4.40
2017-06-10T17:37:27.582Z,7.63
2017-06-10T17:39:54.300Z,5.60
2017-06-10T17:42:20.351Z,8.20
2017-06-10T17:44:46.382Z,4.93
2017-06-10T17:47:12.334Z,4.90
2017-06-10T17:49:38.277Z,7.00
2017-06-10T17:52:04.279Z,5.00
2017-06-10T17:54:30.255Z,7.07
2017-06-10T17:56:56.213Z,7.67
2017-06-10T17:59:22.215Z,5.53
2017-06-10T18:01:48.198Z,4.10
2017-06-10T18:04:14.220Z,4.67
2017-06-10T18:06:40.929Z,10.77
2017-06-10T18:09:07.699Z,5.20
2017-06-10T18:11:33.674Z,4.93
2017-06-10T18:13:59.698Z,7.80
2017-06-10T18:16:25.693Z,6.50
2017-06-10T18:18:52.406Z,4.80
2017-06-10T18:21:18.371Z,6.87
2017-06-10T18:23:48.317Z,3.87
2017-06-10T18:26:14.279Z,4.73
2017-06-10T18:28:40.229Z,6.97
2017-06-10T18:31:06.329Z,6.73
2017-06-10T18:33:32.331Z,4.50
2017-06-10T18:35:58.353Z,6.20
2017-06-10T18:38:24.355Z,4.87
2017-06-10T18:40:50.310Z,5.00
2017-06-10T18:43:17.225Z,6.53
2017-06-10T18:45:43.251Z,4.60
2017-06-10T18:48:09.200Z,5.13
2017-06-10T18:50:35.141Z,6.93
2017-06-10T18:53:01.885Z,4.60
2017-06-10T18:55:27.841Z,4.33
2017-06-10T18:57:53.805Z,5.57
2017-06-10T19:00:19.825Z,5.37
2017-06-10T19:02:45.794Z,6.80
2017-06-10T19:05:12.554Z,8.77
2017-06-10T19:07:38.509Z,4.93
2017-06-10T19:10:04.462Z,5.97
2017-06-10T19:12:30.458Z,8.73
2017-06-10T19:14:56.410Z,6.53
2017-06-10T19:17:22.446Z,5.13
2017-06-10T19:19:48.469Z,6.37
2017-06-10T19:22:15.178Z,6.33
2017-06-10T19:24:41.166Z,6.47
2017-06-10T19:27:07.126Z,8.50
2017-06-10T19:29:33.149Z,6.00
2017-06-10T19:31:59.130Z,7.67
2017-06-10T19:34:25.095Z,6.60
2017-06-10T19:36:51.128Z,7.30
2017-06-10T19:39:17.089Z,6.37
2017-06-10T19:41:43.072Z,9.00
2017-06-10T19:44:09.030Z,8.47
2017-06-10T19:46:35.026Z,8.77
2017-06-10T19:49:01.016Z,5.80
2017-06-10T19:51:27.014Z,5.63
2017-06-10T19:53:52.978Z,8.10
2017-06-10T19:56:19.732Z,10.30
2017-06-10T19:58:45.685Z,6.57
2017-06-10T20:01:11.661Z,9.50
2017-06-10T20:03:37.613Z,6.07
2017-06-10T20:06:03.643Z,7.80
2017-06-10T20:08:30.407Z,9.43
2017-06-10T20:10:56.405Z,9.20
2017-06-10T20:13:22.389Z,9.20
2017-06-10T20:15:48.348Z,8.10
2017-06-10T20:18:14.338Z,8.00
2017-06-10T20:20:40.321Z,9.60
2017-06-10T20:23:06.314Z,8.60
2017-06-10T20:25:33.057Z,10.27
2017-06-10T20:27:59.129Z,9.67
2017-06-10T20:30:25.078Z,9.00
2017-06-10T20:32:51.065Z,11.30
2017-06-10T20:35:17.806Z,12.63
2017-06-10T20:37:43.762Z,13.20
2017-06-10T20:40:09.745Z,12.70
2017-06-10T20:42:35.697Z,14.20
2017-06-10T20:45:01.760Z,12.77
2017-06-10T20:47:27.718Z,14.50
2017-06-10T20:49:53.677Z,15.00
2017-06-10T20:52:19.661Z,14.73
2017-06-10T20:54:45.606Z,17.43
2017-06-10T20:57:11.590Z,22.27
2017-06-10T20:59:37.573Z,21.67
2017-06-10T21:02:04.343Z,21.60
2017-06-10T21:04:30.357Z,18.67
2017-06-10T21:06:56.318Z,20.00
2017-06-10T21:09:23.057Z,18.03
2017-06-10T21:11:49.017Z,17.97
2017-06-10T21:14:15.046Z,19.80
2017-06-10T21:16:40.993Z,20.33
2017-06-10T21:19:06.962Z,22.57
2017-06-10T21:21:32.961Z,21.97
2017-06-10T21:23:58.943Z,19.70
2017-06-10T21:26:24.953Z,19.83
2017-06-10T21:28:50.914Z,20.07
2017-06-10T21:31:17.695Z,20.63
2017-06-10T21:33:43.676Z,19.93
2017-06-10T21:36:09.670Z,17.03
2017-06-10T21:38:36.373Z,19.63
2017-06-10T21:41:02.420Z,22.40
2017-06-10T21:43:28.425Z,22.50
2017-06-10T21:45:54.426Z,20.23
2017-06-10T21:48:21.128Z,19.37
2017-06-10T21:50:47.087Z,17.50
2017-06-10T21:53:13.088Z,16.10
2017-06-10T21:55:39.038Z,16.50
2017-06-10T21:58:05.037Z,14.93
2017-06-10T22:00:31.044Z,15.87
2017-06-10T22:02:57.006Z,14.93
2017-06-10T22:05:23.042Z,15.63
2017-06-10T22:07:48.998Z,15.87
2017-06-10T22:10:15.689Z,16.53
2017-06-10T22:12:41.677Z,15.97
2017-06-10T22:15:07.669Z,14.60
2017-06-10T22:17:33.634Z,15.40
2017-06-10T22:19:59.613Z,14.60
2017-06-10T22:22:25.619Z,15.73
2017-06-10T22:24:51.571Z,14.80
2017-06-10T22:27:17.570Z,14.30
2017-06-10T22:29:43.549Z,16.10
2017-06-10T22:32:09.569Z,13.77
2017-06-10T22:34:35.570Z,13.50
2017-06-10T22:37:01.521Z,12.93
2017-06-10T22:39:27.577Z,14.20
2017-06-10T22:41:53.594Z,12.43
2017-06-10T22:44:19.558Z,13.70
2017-06-10T22:46:45.549Z,13.60
2017-06-10T22:49:12.245Z,12.27
2017-06-10T22:51:38.244Z,13.93
2017-06-10T22:54:04.214Z,13.27
2017-06-10T22:56:30.205Z,13.87
2017-06-10T22:58:56.923Z,13.10
2017-06-10T23:01:22.896Z,13.93
2017-06-10T23:03:48.882Z,13.50
2017-06-10T23:06:14.830Z,13.50
2017-06-10T23:08:40.818Z,13.97
2017-06-10T23:11:06.814Z,13.93
2017-06-10T23:13:32.778Z,12.93
2017-06-10T23:15:58.744Z,13.53
2017-06-10T23:18:24.725Z,14.23
2017-06-10T23:20:51.434Z,14.97
2017-06-10T23:23:17.453Z,13.50
2017-06-10T23:25:43.406Z,15.00
2017-06-10T23:28:09.397Z,15.77
2017-06-10T23:30:35.349Z,16.67
2017-06-10T23:33:01.379Z,13.50
2017-06-10T23:35:27.386Z,15.40
2017-06-10T23:37:53.354Z,14.27
2017-06-10T23:40:19.345Z,13.63
2017-06-10T23:42:45.354Z,12.77
2017-06-10T23:45:11.311Z,14.50
2017-06-10T23:47:37.311Z,14.43
2017-06-10T23:50:03.310Z,15.47
2017-06-10T23:52:29.263Z,14.77
2017-06-10T23:54:55.233Z,13.83
2017-06-10T23:57:21.236Z,13.27
2017-06-10T23:59:47.205Z,13.93
